Time;durP1;ratioP1;P1;durP2;ratioP2;P2;SDS_P1;SDS_P2;PMS_P1;PMS_P2;Temp;Humidity;BMP_temperature;BMP_pressure;BME280_temperature;BME280_humidity;BME280_pressure;Samples;Min_cycle;Max_cycle;Signal;HPM_P1;HPM_P2
2022/09/11 00:01:11;;;;;;;28.33;14.32;;;16.20;99.90;;;;;;5046513;28;20502;-60
2022/09/11 00:03:36;;;;;;;27.77;15.15;;;16.10;99.90;;;;;;5043356;28;20479;-60
2022/09/11 00:06:05;;;;;;;34.22;15.23;;;16.00;99.90;;;;;;5046103;28;20037;-60
2022/09/11 00:08:31;;;;;;;26.35;14.77;;;15.90;99.90;;;;;;5052712;28;20124;-62
2022/09/11 00:11:06;;;;;;;24.52;14.82;;;15.80;99.90;;;;;;5049054;28;20025;-62
2022/09/11 00:13:32;;;;;;;29.25;16.15;;;15.70;99.90;;;;;;5046442;28;20090;-60
2022/09/11 00:15:58;;;;;;;30.08;16.20;;;15.70;99.90;;;;;;5046386;28;20021;-62
2022/09/11 00:18:23;;;;;;;42.08;17.38;;;15.50;99.90;;;;;;5050185;28;20029;-60
2022/09/11 00:20:54;;;;;;;35.53;18.65;;;15.50;99.90;;;;;;5041229;28;20036;-62
2022/09/11 00:23:22;;;;;;;31.67;16.50;;;15.50;99.90;;;;;;5039922;28;20053;-62
2022/09/11 00:25:48;;;;;;;29.67;16.55;;;15.60;99.90;;;;;;5045559;28;20390;-62
2022/09/11 00:28:16;;;;;;;32.05;18.17;;;15.50;99.90;;;;;;5042935;28;20025;-60
2022/09/11 00:30:46;;;;;;;32.17;17.00;;;15.50;99.90;;;;;;5045901;28;20438;-62
2022/09/11 00:33:13;;;;;;;31.48;17.30;;;15.50;99.90;;;;;;5040552;28;20047;-62
2022/09/11 00:35:39;;;;;;;37.72;21.23;;;15.50;99.90;;;;;;5049982;28;20039;-61
2022/09/11 00:38:07;;;;;;;38.67;22.40;;;15.40;99.90;;;;;;5045401;28;20048;-61
2022/09/11 00:40:50;;;;;;;39.38;19.00;;;15.40;99.90;;;;;;5045872;28;21292;-62
2022/09/11 00:43:16;;;;;;;38.42;21.27;;;15.50;99.90;;;;;;5041107;28;20033;-62
2022/09/11 00:45:51;;;;;;;39.17;22.67;;;15.50;99.90;;;;;;5047599;28;20616;-62
2022/09/11 00:48:19;;;;;;;;;;;15.60;99.90;;;;;;5048056;28;20013;-62
2022/09/11 00:50:45;;;;;;;45.35;22.40;;;15.60;99.90;;;;;;5047819;28;20436;-61
2022/09/11 00:53:14;;;;;;;49.65;25.35;;;15.60;99.90;;;;;;5050767;28;20029;-62
2022/09/11 00:55:44;;;;;;;47.10;21.23;;;15.70;99.90;;;;;;5048139;28;20100;-62
2022/09/11 00:58:15;;;;;;;42.97;23.08;;;15.70;99.90;;;;;;5052196;28;20601;-62
2022/09/11 01:00:43;;;;;;;44.58;23.38;;;15.70;99.90;;;;;;5049676;28;20060;-62
2022/09/11 01:03:08;;;;;;;41.58;22.75;;;15.80;99.90;;;;;;5042040;28;20025;-62
2022/09/11 01:05:36;;;;;;;43.10;23.63;;;15.80;99.90;;;;;;5044619;28;20025;-61
2022/09/11 01:08:02;;;;;;;46.00;22.10;;;15.80;99.90;;;;;;5047507;28;20025;-62
2022/09/11 01:11:00;;;;;;;43.65;23.15;;;15.80;99.90;;;;;;5047847;28;20047;-61
2022/09/11 01:13:45;;;;;;;43.22;23.30;;;15.80;99.90;;;;;;5044020;28;20496;-61
2022/09/11 01:16:22;;;;;;;37.33;21.30;;;15.80;99.90;;;;;;5042282;28;20017;-62
2022/09/11 01:19:10;;;;;;;41.83;23.65;;;15.80;99.90;;;;;;5048718;28;20032;-62
2022/09/11 01:22:16;;;;;;;41.45;22.25;;;15.90;99.90;;;;;;5043865;28;20069;-62
2022/09/11 01:24:48;;;;;;;40.75;23.60;;;15.90;99.90;;;;;;5046613;28;20032;-62
2022/09/11 01:27:22;;;;;;;37.47;22.52;;;15.90;99.90;;;;;;5046759;28;20027;-62
2022/09/11 01:29:56;;;;;;;40.22;22.02;;;15.90;99.90;;;;;;5043065;28;20053;-62
2022/09/11 01:32:32;;;;;;;44.40;23.85;;;15.90;99.90;;;;;;5044917;28;20036;-62
2022/09/11 01:35:07;;;;;;;46.72;24.45;;;15.90;99.90;;;;;;5049036;28;20051;-62
2022/09/11 01:37:38;;;;;;;43.90;25.35;;;15.90;99.90;;;;;;5052648;28;20025;-61
2022/09/11 01:40:11;;;;;;;43.20;22.35;;;15.90;99.90;;;;;;5034511;28;20437;-61
2022/09/11 01:42:42;;;;;;;35.17;21.65;;;15.90;99.90;;;;;;5052090;28;20159;-62
2022/09/11 01:45:10;;;;;;;44.05;24.98;;;16.00;99.90;;;;;;5052381;28;20037;-62
2022/09/11 01:47:37;;;;;;;44.13;23.40;;;16.00;99.90;;;;;;5054067;28;20513;-61
2022/09/11 01:50:09;;;;;;;46.22;23.55;;;16.00;99.90;;;;;;5049023;28;20024;-62
2022/09/11 01:52:49;;;;;;;44.03;23.27;;;16.00;99.90;;;;;;5046229;28;20031;-62
2022/09/11 01:55:21;;;;;;;48.70;25.60;;;16.00;99.90;;;;;;5053398;28;20057;-62
2022/09/11 01:58:07;;;;;;;49.50;26.52;;;16.00;99.90;;;;;;5057265;28;20032;-62
2022/09/11 02:00:35;;;;;;;45.50;25.00;;;16.00;99.90;;;;;;5044731;28;20029;-62
2022/09/11 02:03:10;;;;;;;46.85;25.98;;;16.00;99.90;;;;;;5051015;28;20031;-62
2022/09/11 02:06:01;;;;;;;56.10;26.80;;;16.00;99.90;;;;;;5050049;28;20156;-62
2022/09/11 02:08:59;;;;;;;58.17;29.65;;;16.10;99.90;;;;;;5047927;28;20384;-62
2022/09/11 02:11:27;;;;;;;51.40;26.20;;;16.00;99.90;;;;;;5050221;28;20028;-62
2022/09/11 02:14:12;;;;;;;47.38;24.67;;;16.10;99.90;;;;;;5053678;28;20040;-61
2022/09/11 02:16:45;;;;;;;;;;;16.10;99.90;;;;;;5053819;28;20033;-62
2022/09/11 02:19:15;;;;;;;48.28;25.95;;;16.10;99.90;;;;;;5049413;28;19908;-62
2022/09/11 02:21:42;;;;;;;49.60;26.13;;;16.10;99.90;;;;;;5052004;28;20506;-62
2022/09/11 02:24:09;;;;;;;45.25;26.13;;;16.10;99.90;;;;;;5047250;28;20027;-62
2022/09/11 02:26:39;;;;;;;49.80;25.58;;;16.20;99.90;;;;;;5047710;28;20021;-61
2022/09/11 02:29:06;;;;;;;60.67;30.40;;;16.20;99.90;;;;;;5049701;28;20016;-62
2022/09/11 02:31:33;;;;;;;57.47;30.35;;;16.20;99.90;;;;;;5051730;28;20021;-62
2022/09/11 02:33:59;;;;;;;59.35;29.42;;;16.20;99.90;;;;;;5047390;28;20025;-61
2022/09/11 02:36:30;;;;;;;54.53;30.05;;;16.20;99.90;;;;;;5051739;28;20047;-62
2022/09/11 02:39:08;;;;;;;59.97;28.67;;;16.20;99.90;;;;;;5074194;22;20033;-61
2022/09/11 02:42:04;;;;;;;63.40;30.13;;;16.20;99.90;;;;;;5028904;28;20503;-60
2022/09/11 02:44:36;;;;;;;66.80;31.55;;;16.20;99.90;;;;;;5028642;28;20040;-62
2022/09/11 02:47:20;;;;;;;66.93;32.90;;;16.20;99.90;;;;;;5024785;28;20061;-61
2022/09/11 02:50:14;;;;;;;60.28;32.28;;;16.30;99.90;;;;;;5024183;28;20025;-62
2022/09/11 02:52:48;;;;;;;63.17;32.40;;;16.30;99.90;;;;;;5019297;28;20041;-62
2022/09/11 02:55:22;;;;;;;72.35;33.17;;;16.30;99.90;;;;;;5022753;28;20029;-62
2022/09/11 02:58:01;;;;;;;66.07;34.50;;;16.30;99.90;;;;;;5028116;28;20057;-61
2022/09/11 03:00:27;;;;;;;72.13;34.17;;;16.20;99.90;;;;;;5026875;28;20033;-62
2022/09/11 03:02:52;;;;;;;69.90;33.35;;;16.20;99.90;;;;;;5024912;28;20559;-62
2022/09/11 03:05:18;;;;;;;70.00;34.33;;;16.20;99.90;;;;;;5029025;28;20144;-62
2022/09/11 03:07:43;;;;;;;69.32;35.20;;;16.20;99.90;;;;;;5029745;28;20025;-62
2022/09/11 03:10:10;;;;;;;64.75;35.55;;;16.20;99.90;;;;;;5025807;28;20442;-61
2022/09/11 03:12:36;;;;;;;67.43;35.88;;;16.20;99.90;;;;;;5026361;28;20132;-61
2022/09/11 03:15:03;;;;;;;75.18;38.08;;;16.20;99.90;;;;;;5028305;28;20469;-62
2022/09/11 03:17:28;;;;;;;71.03;35.17;;;16.20;99.90;;;;;;5024575;28;20030;-61
2022/09/11 03:19:53;;;;;;;61.72;34.13;;;16.20;99.90;;;;;;5034633;28;20064;-61
2022/09/11 03:22:19;;;;;;;71.90;34.90;;;16.20;99.90;;;;;;5022803;28;20439;-62
2022/09/11 03:24:45;;;;;;;65.10;34.95;;;16.20;99.90;;;;;;5026553;28;20030;-62
2022/09/11 03:27:10;;;;;;;75.63;37.28;;;16.20;99.90;;;;;;5027191;28;20042;-61
2022/09/11 03:29:36;;;;;;;68.03;35.08;;;16.10;99.90;;;;;;5029698;28;20030;-61
2022/09/11 03:32:02;;;;;;;81.78;35.97;;;16.10;99.90;;;;;;5028628;28;20385;-62
2022/09/11 03:34:28;;;;;;;82.82;36.63;;;16.10;99.90;;;;;;5027744;28;20032;-61
2022/09/11 03:36:54;;;;;;;77.07;36.85;;;16.10;99.90;;;;;;5030410;28;20458;-61
2022/09/11 03:39:19;;;;;;;73.50;36.97;;;16.10;99.90;;;;;;5032017;28;20026;-61
2022/09/11 03:41:45;;;;;;;77.47;36.50;;;16.10;99.90;;;;;;5027629;28;20026;-60
2022/09/11 03:44:11;;;;;;;79.25;37.63;;;16.00;99.90;;;;;;5028197;28;20067;-61
2022/09/11 03:46:37;;;;;;;81.63;39.28;;;16.00;99.90;;;;;;5030420;28;20024;-61
2022/09/11 03:49:02;;;;;;;78.50;38.13;;;16.00;99.90;;;;;;5033233;28;20044;-61
2022/09/11 03:51:30;;;;;;;82.80;38.92;;;16.00;99.90;;;;;;5026971;28;20025;-60
2022/09/11 03:53:58;;;;;;;75.72;36.08;;;16.00;99.90;;;;;;5028147;28;20068;-61
2022/09/11 03:56:24;;;;;;;71.63;34.78;;;16.00;99.90;;;;;;5030100;28;20056;-60
2022/09/11 03:58:57;;;;;;;80.18;38.47;;;16.00;99.90;;;;;;5029770;28;20065;-61
2022/09/11 04:01:23;;;;;;;81.82;36.67;;;16.00;99.90;;;;;;5022892;28;20061;-63
2022/09/11 04:03:49;;;;;;;80.10;37.30;;;16.00;99.90;;;;;;5029706;28;20021;-62
2022/09/11 04:06:15;;;;;;;71.80;35.83;;;16.00;99.90;;;;;;5023855;28;20511;-62
2022/09/11 04:08:41;;;;;;;73.20;36.80;;;16.00;99.90;;;;;;5027217;28;20028;-61
2022/09/11 04:11:08;;;;;;;83.82;38.30;;;16.00;99.90;;;;;;5027014;28;20021;-61
2022/09/11 04:13:35;;;;;;;76.25;37.25;;;16.00;99.90;;;;;;5025624;28;20034;-62
2022/09/11 04:16:07;;;;;;;76.68;37.60;;;16.00;99.90;;;;;;5026169;28;20026;-62
2022/09/11 04:18:35;;;;;;;87.10;38.47;;;16.00;99.90;;;;;;5026254;28;20101;-62
2022/09/11 04:21:10;;;;;;;81.53;36.65;;;16.00;99.90;;;;;;5023522;28;20487;-61
2022/09/11 04:23:36;;;;;;;77.45;37.63;;;16.00;99.90;;;;;;5021571;28;20018;-62
2022/09/11 04:26:02;;;;;;;75.63;36.67;;;15.90;99.90;;;;;;5016268;28;20105;-62
2022/09/11 04:28:29;;;;;;;80.80;37.42;;;15.90;99.90;;;;;;5018820;28;20018;-61
2022/09/11 04:30:58;;;;;;;85.03;36.47;;;15.90;99.90;;;;;;5024264;28;20442;-62
2022/09/11 04:33:23;;;;;;;84.78;38.92;;;15.90;99.90;;;;;;5020494;28;20014;-61
2022/09/11 04:35:49;;;;;;;74.55;36.92;;;15.90;99.90;;;;;;5018874;28;20033;-61
2022/09/11 04:38:15;;;;;;;81.88;36.08;;;15.90;99.90;;;;;;5018529;28;20116;-61
2022/09/11 04:40:40;;;;;;;84.20;36.80;;;15.90;99.90;;;;;;5018052;28;20096;-61
2022/09/11 04:43:06;;;;;;;83.18;35.05;;;16.00;99.90;;;;;;5021657;28;20026;-62
2022/09/11 04:45:32;;;;;;;80.30;37.15;;;15.90;99.90;;;;;;5015732;28;20022;-61
2022/09/11 04:47:59;;;;;;;87.85;37.95;;;15.90;99.90;;;;;;5014460;28;20032;-62
2022/09/11 04:50:27;;;;;;;85.00;37.20;;;15.90;99.90;;;;;;5016103;28;20594;-62
2022/09/11 04:52:53;;;;;;;84.93;36.90;;;15.90;99.90;;;;;;5020417;28;20487;-62
2022/09/11 04:55:19;;;;;;;86.75;36.95;;;15.90;99.90;;;;;;5020933;28;20053;-61
2022/09/11 04:57:44;;;;;;;87.85;38.03;;;15.90;99.90;;;;;;5024366;28;20069;-62
2022/09/11 05:00:11;;;;;;;95.32;38.22;;;15.90;99.90;;;;;;5022883;28;20448;-62
2022/09/11 05:02:36;;;;;;;80.22;36.20;;;15.90;99.90;;;;;;5015283;28;20025;-62
2022/09/11 05:05:02;;;;;;;80.72;37.10;;;15.90;99.90;;;;;;5019520;28;20164;-62
2022/09/11 05:07:28;;;;;;;93.30;38.78;;;15.90;99.90;;;;;;5019881;28;20030;-62
2022/09/11 05:09:53;;;;;;;93.60;39.00;;;15.90;99.90;;;;;;5022231;28;20062;-62
2022/09/11 05:12:22;;;;;;;94.82;40.92;;;15.90;99.90;;;;;;5022366;28;20080;-62
2022/09/11 05:14:47;;;;;;;98.05;38.72;;;15.80;99.90;;;;;;5021472;28;20056;-61
2022/09/11 05:17:13;;;;;;;98.40;39.35;;;15.80;99.90;;;;;;5020343;28;20037;-62
2022/09/11 05:19:39;;;;;;;98.15;39.80;;;15.80;99.90;;;;;;5017018;28;20030;-60
2022/09/11 05:22:05;;;;;;;97.55;38.40;;;15.80;99.90;;;;;;5021457;28;20400;-61
2022/09/11 05:24:31;;;;;;;104.78;41.60;;;15.80;99.90;;;;;;5018112;28;20026;-62
2022/09/11 05:27:00;;;;;;;101.60;42.47;;;15.80;99.90;;;;;;5018626;28;20040;-62
2022/09/11 05:29:28;;;;;;;112.13;43.33;;;15.70;99.90;;;;;;5015325;28;20075;-62
2022/09/11 05:32:00;;;;;;;103.07;41.65;;;15.80;99.90;;;;;;5016692;28;20038;-62
2022/09/11 05:34:29;;;;;;;107.53;42.53;;;15.80;99.90;;;;;;5022687;28;20045;-61
2022/09/11 05:36:58;;;;;;;106.40;40.55;;;15.80;99.90;;;;;;5013401;28;20034;-62
2022/09/11 05:39:24;;;;;;;103.57;43.55;;;15.80;99.90;;;;;;5020079;28;20037;-62
2022/09/11 05:41:50;;;;;;;97.70;41.22;;;15.80;99.90;;;;;;5015073;28;20037;-62
2022/09/11 05:44:16;;;;;;;101.75;40.92;;;15.80;99.90;;;;;;5021734;28;20101;-61
2022/09/11 05:46:42;;;;;;;108.05;40.70;;;15.80;99.90;;;;;;5020528;28;20112;-62
2022/09/11 05:49:07;;;;;;;108.72;42.38;;;15.80;99.90;;;;;;5013850;28;20026;-64
2022/09/11 05:51:36;;;;;;;109.38;40.47;;;15.80;99.90;;;;;;5020166;28;20030;-61
2022/09/11 05:54:02;;;;;;;98.35;38.60;;;15.80;99.90;;;;;;5016750;28;20029;-62
2022/09/11 05:56:27;;;;;;;105.35;41.65;;;15.70;99.90;;;;;;5019361;28;20026;-62
2022/09/11 05:58:53;;;;;;;104.63;40.13;;;15.70;99.90;;;;;;5023366;28;20025;-62
2022/09/11 06:01:25;;;;;;;109.75;41.30;;;15.70;99.90;;;;;;5013837;28;20026;-62
2022/09/11 06:03:51;;;;;;;110.75;40.90;;;15.70;99.90;;;;;;5016413;28;20025;-62
2022/09/11 06:06:19;;;;;;;113.47;41.80;;;15.70;99.90;;;;;;5014400;28;20022;-62
2022/09/11 06:08:46;;;;;;;118.70;44.92;;;15.70;99.90;;;;;;5014120;28;20024;-61
2022/09/11 06:11:13;;;;;;;123.72;43.10;;;15.70;99.90;;;;;;5017827;28;20406;-61
2022/09/11 06:13:41;;;;;;;105.85;41.63;;;15.70;99.90;;;;;;5018884;28;20021;-59
2022/09/11 06:16:14;;;;;;;109.85;41.90;;;15.70;99.90;;;;;;5017632;28;20462;-62
2022/09/11 06:18:40;;;;;;;118.82;43.83;;;15.70;99.90;;;;;;5023302;28;20046;-62
2022/09/11 06:21:18;;;;;;;114.43;43.75;;;15.70;99.90;;;;;;5022366;28;20115;-62
2022/09/11 06:23:45;;;;;;;117.65;42.92;;;15.60;99.90;;;;;;5023355;28;20022;-62
2022/09/11 06:26:14;;;;;;;136.10;44.67;;;15.70;99.90;;;;;;5018868;28;20558;-61
2022/09/11 06:28:40;;;;;;;127.47;41.83;;;15.60;99.90;;;;;;5022832;28;21023;-61
2022/09/11 06:31:17;;;;;;;125.05;45.20;;;15.60;99.90;;;;;;5019070;28;20030;-62
2022/09/11 06:33:43;;;;;;;128.93;44.05;;;15.60;99.90;;;;;;5022222;28;20095;-62
2022/09/11 06:36:17;;;;;;;132.90;44.72;;;15.60;99.90;;;;;;5023468;28;20053;-61
2022/09/11 06:38:43;;;;;;;137.52;45.35;;;15.60;99.90;;;;;;5017842;28;21024;-62
2022/09/11 06:41:13;;;;;;;126.20;41.97;;;15.60;99.90;;;;;;5021741;28;20038;-61
2022/09/11 06:43:39;;;;;;;115.47;40.28;;;15.60;99.90;;;;;;5021093;28;20025;-62
2022/09/11 06:46:10;;;;;;;113.53;42.35;;;15.60;99.90;;;;;;5020463;28;20022;-62
2022/09/11 06:48:36;;;;;;;111.57;40.13;;;15.70;99.90;;;;;;5015678;28;20030;-62
2022/09/11 06:51:06;;;;;;;121.05;42.00;;;15.70;99.90;;;;;;5024563;28;20562;-62
2022/09/11 06:53:32;;;;;;;124.95;42.17;;;15.70;99.90;;;;;;5026339;28;20396;-62
2022/09/11 06:56:02;;;;;;;118.15;42.67;;;15.80;99.90;;;;;;5022000;28;20026;-63
2022/09/11 06:58:29;;;;;;;118.35;43.38;;;15.80;99.90;;;;;;5021074;28;20057;-62
2022/09/11 07:01:00;;;;;;;129.88;42.63;;;15.80;99.90;;;;;;5015657;28;20424;-62
2022/09/11 07:03:25;;;;;;;112.22;41.30;;;15.80;99.90;;;;;;5020540;28;20117;-63
2022/09/11 07:05:51;;;;;;;112.95;43.05;;;15.80;99.90;;;;;;5020035;28;20106;-62
2022/09/11 07:08:16;;;;;;;114.07;40.70;;;15.80;99.90;;;;;;5018961;28;20049;-62
2022/09/11 07:10:42;;;;;;;111.95;40.97;;;15.90;99.90;;;;;;5019691;28;20034;-63
2022/09/11 07:13:07;;;;;;;98.95;39.20;;;15.70;99.90;;;;;;5017004;28;20029;-64
2022/09/11 07:15:33;;;;;;;113.22;39.05;;;15.80;99.90;;;;;;5018774;28;20491;-64
2022/09/11 07:18:00;;;;;;;109.55;38.53;;;15.90;99.90;;;;;;5016388;28;20030;-64
2022/09/11 07:20:26;;;;;;;106.95;37.72;;;15.90;99.90;;;;;;5024329;28;20021;-65
2022/09/11 07:22:52;;;;;;;105.88;38.22;;;15.90;99.90;;;;;;5017838;28;20030;-64
2022/09/11 07:25:17;;;;;;;115.10;41.20;;;15.90;99.90;;;;;;5014054;28;20047;-64
2022/09/11 07:27:43;;;;;;;107.18;38.50;;;15.90;99.90;;;;;;5015953;28;20088;-64
2022/09/11 07:30:09;;;;;;;105.85;37.05;;;16.00;99.90;;;;;;5021010;28;20422;-63
2022/09/11 07:32:36;;;;;;;103.25;37.42;;;16.00;99.90;;;;;;5015017;28;20551;-64
2022/09/11 07:35:03;;;;;;;96.43;37.00;;;16.00;99.90;;;;;;5016434;28;20112;-64
2022/09/11 07:37:28;;;;;;;99.72;36.05;;;16.00;99.90;;;;;;5000793;28;20030;-64
2022/09/11 07:39:54;;;;;;;101.95;36.42;;;16.00;99.90;;;;;;5016089;28;20550;-63
2022/09/11 07:42:19;;;;;;;107.57;41.63;;;16.10;99.90;;;;;;5017740;28;20108;-65
2022/09/11 07:44:45;;;;;;;119.15;40.72;;;16.10;99.90;;;;;;5017830;28;20032;-64
2022/09/11 07:47:11;;;;;;;114.18;40.65;;;16.10;99.90;;;;;;5016391;28;20036;-63
2022/09/11 07:49:36;;;;;;;109.07;38.35;;;16.10;99.90;;;;;;5019168;28;20071;-63
2022/09/11 07:52:02;;;;;;;96.22;36.13;;;16.10;99.90;;;;;;5017441;28;20033;-62
2022/09/11 07:54:28;;;;;;;87.55;34.33;;;16.20;99.90;;;;;;5027875;28;20025;-64
2022/09/11 07:56:55;;;;;;;82.35;33.10;;;16.20;99.90;;;;;;5022109;28;20052;-64
2022/09/11 07:59:21;;;;;;;85.32;31.52;;;16.20;99.90;;;;;;5020646;28;20116;-64
2022/09/11 08:01:47;;;;;;;80.18;31.98;;;16.40;99.90;;;;;;5014900;28;20030;-65
2022/09/11 08:04:13;;;;;;;84.88;31.77;;;16.40;99.90;;;;;;5017399;28;20036;-64
2022/09/11 08:06:39;;;;;;;83.15;32.58;;;16.50;99.90;;;;;;5019067;28;20013;-63
2022/09/11 08:09:07;;;;;;;82.95;32.40;;;16.60;99.90;;;;;;5023492;28;20029;-64
2022/09/11 08:11:37;;;;;;;77.82;33.50;;;16.60;99.90;;;;;;5019964;28;20541;-64
2022/09/11 08:14:03;;;;;;;86.60;32.00;;;16.60;99.90;;;;;;5020493;28;20065;-64
2022/09/11 08:16:29;;;;;;;74.05;32.42;;;16.50;99.90;;;;;;5021662;28;20033;-64
2022/09/11 08:18:55;;;;;;;71.53;30.58;;;16.50;99.90;;;;;;5014154;28;20044;-64
2022/09/11 08:21:22;;;;;;;81.70;34.70;;;16.50;99.90;;;;;;5014133;28;20060;-64
2022/09/11 08:23:48;;;;;;;84.03;33.95;;;16.50;99.90;;;;;;5020592;28;20073;-65
2022/09/11 08:26:20;;;;;;;86.30;33.65;;;16.40;99.90;;;;;;5017764;28;20440;-65
2022/09/11 08:28:47;;;;;;;81.72;32.42;;;16.40;99.90;;;;;;5024299;28;20033;-65
2022/09/11 08:31:12;;;;;;;85.18;34.13;;;16.40;99.90;;;;;;5018794;28;20044;-64
2022/09/11 08:33:39;;;;;;;79.70;34.30;;;16.50;99.90;;;;;;5020812;28;20752;-66
2022/09/11 08:36:08;;;;;;;74.93;31.02;;;16.40;99.90;;;;;;5023249;28;20026;-65
2022/09/11 08:38:35;;;;;;;81.97;32.28;;;16.40;99.90;;;;;;5016751;28;20105;-65
2022/09/11 08:43:35;;;;;;;80.40;33.42;;;16.40;99.90;;;;;;5038254;28;20056;-58
2022/09/11 08:46:05;;;;;;;79.50;32.45;;;16.40;99.90;;;;;;5048251;28;20028;-54
2022/09/11 08:49:25;;;;;;;70.68;30.80;;;16.40;99.90;;;;;;5048359;28;20028;-59
2022/09/11 08:51:55;;;;;;;66.20;28.42;;;16.40;99.90;;;;;;4999711;28;20072;-57
2022/09/11 08:54:36;;;;;;;75.45;31.35;;;16.50;99.90;;;;;;5028106;28;20025;-59
2022/09/11 08:57:29;;;;;;;87.13;30.95;;;16.60;99.90;;;;;;5028244;28;20022;-56
2022/09/11 09:00:17;;;;;;;68.78;29.88;;;16.70;99.90;;;;;;5025985;28;20026;-56
2022/09/11 09:03:12;;;;;;;71.35;30.38;;;16.70;99.90;;;;;;5022783;28;20037;-56
2022/09/11 09:06:13;;;;;;;70.30;29.15;;;16.70;99.90;;;;;;5025517;28;20029;-58
2022/09/11 09:09:22;;;;;;;75.90;33.60;;;16.80;99.90;;;;;;5021762;28;20143;-57
2022/09/11 09:12:19;;;;;;;75.80;32.03;;;16.80;99.90;;;;;;5020129;28;20049;-57
2022/09/11 09:15:08;;;;;;;82.30;33.65;;;16.80;99.90;;;;;;5023955;28;20033;-55
2022/09/11 09:17:37;;;;;;;83.97;33.50;;;16.80;99.90;;;;;;5025825;28;20674;-56
2022/09/11 09:20:11;;;;;;;78.93;30.98;;;16.70;99.90;;;;;;5024326;28;20088;-57
2022/09/11 09:22:48;;;;;;;76.90;31.98;;;16.80;99.90;;;;;;5024358;28;20056;-53
2022/09/11 09:25:18;;;;;;;75.85;32.28;;;16.80;99.90;;;;;;5027107;28;20488;-56
2022/09/11 09:27:47;;;;;;;75.90;31.65;;;16.80;99.90;;;;;;5025304;28;20132;-54
2022/09/11 09:30:18;;;;;;;72.80;32.33;;;16.80;99.90;;;;;;5024903;28;20021;-57
2022/09/11 09:33:14;;;;;;;63.83;28.65;;;16.90;99.90;;;;;;5027551;28;20041;-58
2022/09/11 09:35:42;;;;;;;70.40;28.02;;;17.00;99.90;;;;;;5017888;28;20500;-54
2022/09/11 09:38:28;;;;;;;64.13;29.25;;;17.10;99.90;;;;;;5028229;28;20045;-58
2022/09/11 09:41:20;;;;;;;62.83;29.35;;;17.20;99.90;;;;;;5021097;28;20034;-57
2022/09/11 09:43:56;;;;;;;64.68;28.65;;;17.10;99.90;;;;;;5023066;28;20021;-58
2022/09/11 09:46:42;;;;;;;59.47;27.35;;;17.20;99.90;;;;;;5021392;28;20018;-58
2022/09/11 09:49:16;;;;;;;55.72;26.35;;;17.30;99.90;;;;;;5025571;28;20044;-57
2022/09/11 09:51:42;;;;;;;61.42;26.63;;;17.50;99.90;;;;;;5024468;28;20025;-59
2022/09/11 09:54:14;;;;;;;54.63;24.60;;;17.70;99.90;;;;;;5023955;28;20033;-57
2022/09/11 09:56:43;;;;;;;61.33;27.67;;;17.80;99.90;;;;;;5026934;28;20033;-58
2022/09/11 09:59:20;;;;;;;52.80;24.17;;;18.00;99.90;;;;;;5025630;28;20088;-59
2022/09/11 10:01:48;;;;;;;55.72;26.98;;;18.20;99.90;;;;;;5026386;28;20040;-58
2022/09/11 10:04:28;;;;;;;53.65;27.17;;;18.20;99.90;;;;;;5029112;28;20113;-56
2022/09/11 10:07:07;;;;;;;52.90;24.42;;;18.20;99.90;;;;;;5031078;28;20537;-57
2022/09/11 10:09:33;;;;;;;53.90;25.90;;;18.30;99.90;;;;;;5023675;28;20026;-57
2022/09/11 10:12:02;;;;;;;49.45;25.92;;;18.30;99.90;;;;;;5020466;28;20075;-58
2022/09/11 10:14:33;;;;;;;51.08;25.75;;;18.30;99.90;;;;;;5025526;28;20110;-56
2022/09/11 10:17:01;;;;;;;51.92;25.92;;;18.40;99.90;;;;;;5029220;28;20033;-58
2022/09/11 10:19:38;;;;;;;50.90;27.40;;;18.50;99.90;;;;;;5025566;28;20026;-58
2022/09/11 10:22:24;;;;;;;47.08;25.08;;;18.50;99.90;;;;;;5024750;28;20145;-58
2022/09/11 10:25:00;;;;;;;50.40;24.13;;;18.50;99.90;;;;;;5019185;28;20026;-58
2022/09/11 10:27:28;;;;;;;51.67;27.08;;;18.60;99.90;;;;;;5021937;28;20025;-58
2022/09/11 10:29:53;;;;;;;50.38;26.75;;;18.80;99.90;;;;;;5024144;28;20045;-58
2022/09/11 10:32:21;;;;;;;56.58;24.00;;;18.80;99.90;;;;;;5029522;28;20065;-57
2022/09/11 10:34:47;;;;;;;52.33;25.67;;;18.90;99.90;;;;;;5028498;28;20026;-55
2022/09/11 10:37:13;;;;;;;49.78;23.55;;;19.00;99.90;;;;;;5025501;28;20041;-54
2022/09/11 10:39:41;;;;;;;43.55;23.25;;;19.10;99.90;;;;;;5023818;28;20112;-58
2022/09/11 10:42:17;;;;;;;46.25;24.20;;;18.90;99.90;;;;;;5027054;28;20040;-56
2022/09/11 10:44:44;;;;;;;46.40;23.23;;;18.90;99.90;;;;;;5027192;28;20536;-58
2022/09/11 10:47:24;;;;;;;45.60;22.70;;;19.00;99.90;;;;;;5028067;28;20108;-57
2022/09/11 10:50:18;;;;;;;40.00;21.27;;;19.20;99.90;;;;;;5028437;28;20400;-58
2022/09/11 10:52:52;;;;;;;41.38;21.52;;;19.50;99.90;;;;;;5029568;28;20027;-57
2022/09/11 10:55:19;;;;;;;;;;;19.60;99.90;;;;;;5027955;28;20087;-58
2022/09/11 10:57:52;;;;;;;38.08;19.17;;;19.50;99.90;;;;;;5027648;28;19912;-58
2022/09/11 11:00:22;;;;;;;42.67;19.67;;;19.60;99.90;;;;;;5024613;28;20495;-58
2022/09/11 11:02:57;;;;;;;38.85;21.00;;;20.00;99.90;;;;;;5026046;28;20044;-58
2022/09/11 11:05:34;;;;;;;37.10;19.13;;;19.90;99.90;;;;;;5021636;28;20095;-58
2022/09/11 11:08:18;;;;;;;34.22;19.50;;;19.80;99.90;;;;;;5024309;28;20033;-56
2022/09/11 11:11:28;;;;;;;35.72;17.40;;;19.80;99.90;;;;;;5030767;28;20033;-59
2022/09/11 11:14:12;;;;;;;38.20;18.63;;;19.60;99.90;;;;;;5027530;28;20061;-57
2022/09/11 11:17:04;;;;;;;30.13;17.92;;;19.90;99.90;;;;;;5025331;28;20083;-58
2022/09/11 11:19:39;;;;;;;34.00;18.10;;;20.10;99.90;;;;;;5028081;28;20022;-59
2022/09/11 11:22:26;;;;;;;32.92;18.23;;;20.40;99.90;;;;;;5027313;28;20061;-58
2022/09/11 11:25:21;;;;;;;34.00;18.48;;;20.50;99.90;;;;;;5029436;28;20112;-58
2022/09/11 11:27:58;;;;;;;29.85;17.73;;;20.20;99.90;;;;;;5027675;28;20025;-56
2022/09/11 11:30:36;;;;;;;31.00;16.17;;;20.00;99.90;;;;;;5027697;28;20040;-57
2022/09/11 11:33:30;;;;;;;29.13;17.40;;;19.90;99.90;;;;;;5011177;28;20537;-59
2022/09/11 11:35:59;;;;;;;33.80;17.42;;;20.00;99.90;;;;;;5023499;28;20034;-58
2022/09/11 11:38:33;;;;;;;33.10;17.48;;;20.00;99.90;;;;;;5025661;28;20025;-59
2022/09/11 11:41:19;;;;;;;35.25;19.63;;;20.00;99.90;;;;;;5023306;28;20030;-59
2022/09/11 11:43:47;;;;;;;32.10;18.13;;;20.30;99.90;;;;;;5023507;28;20025;-59
2022/09/11 11:46:25;;;;;;;33.50;18.05;;;20.60;99.90;;;;;;5022955;28;20034;-56
2022/09/11 11:49:34;;;;;;;29.77;17.65;;;20.80;99.90;;;;;;5021636;28;20029;-58
2022/09/11 11:52:18;;;;;;;33.97;19.05;;;20.60;99.90;;;;;;5026396;28;20064;-58
2022/09/11 11:55:10;;;;;;;33.40;17.35;;;20.90;99.90;;;;;;5026940;28;20369;-58
2022/09/11 11:57:41;;;;;;;32.00;16.90;;;21.20;99.90;;;;;;5026781;28;20068;-57
2022/09/11 12:00:16;;;;;;;30.98;16.75;;;21.40;99.90;;;;;;5023649;28;20087;-60
2022/09/11 12:03:02;;;;;;;22.08;14.13;;;21.50;99.90;;;;;;5024982;28;20564;-57
2022/09/11 12:05:31;;;;;;;25.50;13.15;;;21.50;99.90;;;;;;5021905;28;20483;-57
2022/09/11 12:07:57;;;;;;;22.55;13.80;;;21.70;99.90;;;;;;5021908;28;20043;-57
2022/09/11 12:10:36;;;;;;;24.23;12.95;;;21.90;99.90;;;;;;5027260;28;20546;-55
2022/09/11 12:13:07;;;;;;;20.60;11.63;;;22.30;99.90;;;;;;5024716;28;20052;-57
2022/09/11 12:15:34;;;;;;;26.10;14.25;;;22.50;99.90;;;;;;5018290;28;20498;-56
2022/09/11 12:18:10;;;;;;;20.83;12.93;;;22.40;99.90;;;;;;5025937;28;20049;-58
2022/09/11 12:20:44;;;;;;;22.92;12.43;;;22.30;99.90;;;;;;5023186;28;20025;-54
2022/09/11 12:23:29;;;;;;;21.92;13.98;;;22.30;99.90;;;;;;5004537;28;20021;-56
2022/09/11 12:26:20;;;;;;;19.80;12.38;;;22.60;99.90;;;;;;5022372;28;20041;-56
2022/09/11 12:28:47;;;;;;;25.48;12.88;;;22.70;99.90;;;;;;5031185;28;20025;-55
2022/09/11 12:31:16;;;;;;;21.67;12.45;;;22.90;99.90;;;;;;5023935;28;20021;-55
2022/09/11 12:33:48;;;;;;;21.95;11.63;;;22.90;99.90;;;;;;5029489;28;20029;-54
2022/09/11 12:36:23;;;;;;;32.45;13.68;;;23.20;99.90;;;;;;5021829;28;20044;-55
2022/09/11 12:39:32;;;;;;;25.80;13.40;;;23.10;99.90;;;;;;5021631;28;20533;-53
2022/09/11 12:42:22;;;;;;;23.73;11.95;;;23.10;99.90;;;;;;5016240;28;20508;-59
2022/09/11 12:44:48;;;;;;;22.75;12.77;;;23.00;99.90;;;;;;5021354;28;20100;-57
2022/09/11 12:47:23;;;;;;;20.20;12.38;;;23.00;99.90;;;;;;5018597;28;20551;-57
2022/09/11 12:50:03;;;;;;;16.33;10.25;;;23.40;99.90;;;;;;5024043;28;21799;-57
2022/09/11 12:52:39;;;;;;;17.35;9.88;;;23.60;99.90;;;;;;5019024;28;20099;-58